createdAt,value
2022-12-31T00:01:15.153Z,92437.09
2022-12-31T00:03:45.865Z,92449.09
2022-12-31T00:06:17.105Z,92449.22
2022-12-31T00:08:46.165Z,92434.84
2022-12-31T00:11:15.518Z,92438.69
2022-12-31T00:13:45.884Z,92430.19
2022-12-31T00:16:18.410Z,92444.78
2022-12-31T00:18:51.489Z,92446.56
2022-12-31T00:21:20.944Z,92447.50
2022-12-31T00:23:50.149Z,92440.78
2022-12-31T00:26:21.097Z,92464.19
2022-12-31T00:28:50.230Z,92453.06
2022-12-31T00:31:20.726Z,92491.34
2022-12-31T00:33:51.239Z,92478.34
2022-12-31T00:36:23.361Z,92454.56
2022-12-31T00:38:54.521Z,92473.19
2022-12-31T00:41:25.062Z,92457.88
2022-12-31T00:43:53.854Z,92447.19
2022-12-31T00:46:23.081Z,92449.78
2022-12-31T00:48:53.365Z,92426.50
2022-12-31T00:51:27.502Z,92447.22
2022-12-31T00:53:56.674Z,92439.63
2022-12-31T00:56:28.308Z,92425.63
2022-12-31T00:58:57.212Z,92428.00
2022-12-31T01:01:28.551Z,92412.47
2022-12-31T01:04:03.359Z,92448.38
2022-12-31T01:06:32.199Z,92412.47
2022-12-31T01:09:00.764Z,92437.81
2022-12-31T01:11:30.130Z,92443.06
2022-12-31T01:14:01.472Z,92439.03
2022-12-31T01:16:34.248Z,92434.28
2022-12-31T01:19:07.877Z,92446.72
2022-12-31T01:21:37.270Z,92433.28
2022-12-31T01:24:06.690Z,92460.63
2022-12-31T01:26:35.413Z,92468.72
2022-12-31T01:29:04.902Z,92479.81
2022-12-31T01:31:36.416Z,92481.16
2022-12-31T01:34:07.076Z,92453.38
2022-12-31T01:36:37.275Z,92497.16
2022-12-31T01:39:08.017Z,92482.13
2022-12-31T01:41:39.627Z,92488.38
2022-12-31T01:44:51.581Z,92491.16
2022-12-31T01:47:32.098Z,92538.25
2022-12-31T01:50:09.621Z,92518.13
2022-12-31T01:52:42.927Z,92502.16
2022-12-31T01:55:21.753Z,92530.59
2022-12-31T01:57:53.741Z,92511.25
2022-12-31T02:00:22.453Z,92510.66
2022-12-31T02:02:51.256Z,92522.19
2022-12-31T02:05:28.897Z,92504.19
2022-12-31T02:07:58.935Z,92535.28
2022-12-31T02:10:27.673Z,92519.06
2022-12-31T02:12:56.215Z,92553.41
2022-12-31T02:15:40.120Z,92549.63
2022-12-31T02:18:18.586Z,92533.97
2022-12-31T02:21:14.456Z,92523.88
2022-12-31T02:24:42.385Z,92549.88
2022-12-31T02:27:14.374Z,92542.69
2022-12-31T02:30:11.494Z,92560.78
2022-12-31T02:32:56.673Z,92546.84
2022-12-31T02:35:31.438Z,92541.47
2022-12-31T02:38:06.902Z,92542.69
2022-12-31T02:40:38.167Z,92549.34
2022-12-31T02:43:07.390Z,92567.50
2022-12-31T02:45:41.747Z,92554.81
2022-12-31T02:48:29.655Z,92568.03
2022-12-31T02:51:13.674Z,92544.72
2022-12-31T02:54:23.245Z,92540.09
2022-12-31T02:57:03.901Z,92536.19
2022-12-31T02:59:57.042Z,92527.81
2022-12-31T03:02:30.165Z,92535.09
2022-12-31T03:04:59.352Z,92540.75
2022-12-31T03:07:32.020Z,92541.63
2022-12-31T03:10:01.161Z,92557.19
2022-12-31T03:12:47.107Z,92551.56
2022-12-31T03:15:22.742Z,92546.59
2022-12-31T03:17:56.939Z,92549.84
2022-12-31T03:20:47.746Z,92556.66
2022-12-31T03:23:21.128Z,92550.13
2022-12-31T03:25:48.761Z,92547.31
2022-12-31T03:28:19.923Z,92549.97
2022-12-31T03:30:52.147Z,92561.59
2022-12-31T03:33:23.044Z,92560.16
2022-12-31T03:35:52.732Z,92556.28
2022-12-31T03:38:21.920Z,92557.75
2022-12-31T03:40:53.626Z,92549.31
2022-12-31T03:43:22.296Z,92546.09
2022-12-31T03:45:52.758Z,92549.88
2022-12-31T03:48:24.514Z,92553.59
2022-12-31T03:50:53.257Z,92547.84
2022-12-31T03:53:21.941Z,92548.00
2022-12-31T03:55:53.398Z,92542.44
2022-12-31T03:58:22.804Z,92537.34
2022-12-31T04:00:51.781Z,92548.97
2022-12-31T04:03:20.448Z,92558.34
2022-12-31T04:05:55.687Z,92560.50
2022-12-31T04:08:24.325Z,92559.47
2022-12-31T04:11:18.912Z,92569.06
2022-12-31T04:13:49.223Z,92575.19
2022-12-31T04:16:17.788Z,92579.13
2022-12-31T04:18:46.332Z,92556.53
2022-12-31T04:21:16.155Z,92551.75
2022-12-31T04:23:44.694Z,92560.44
2022-12-31T04:26:13.384Z,92552.75
2022-12-31T04:28:41.856Z,92554.13
2022-12-31T04:31:11.324Z,92562.63
2022-12-31T04:33:39.818Z,92569.66
2022-12-31T04:36:10.242Z,92567.97
2022-12-31T04:38:40.076Z,92558.66
2022-12-31T04:41:21.261Z,92562.28
2022-12-31T04:43:52.430Z,92552.97
2022-12-31T04:46:23.807Z,92567.19
2022-12-31T04:48:53.042Z,92567.25
2022-12-31T04:51:22.309Z,92560.09
2022-12-31T04:53:52.519Z,92569.50
2022-12-31T04:56:21.698Z,92572.66
2022-12-31T04:58:50.168Z,92575.75
2022-12-31T05:01:19.294Z,92584.53
2022-12-31T05:03:49.121Z,92599.13
2022-12-31T05:06:20.975Z,92622.50
2022-12-31T05:08:51.279Z,92595.09
2022-12-31T05:11:19.876Z,92586.88
2022-12-31T05:13:48.567Z,92593.47
2022-12-31T05:16:17.090Z,92611.31
2022-12-31T05:18:45.595Z,92603.94
2022-12-31T05:21:20.766Z,92594.94
2022-12-31T05:23:51.376Z,92594.94
2022-12-31T05:26:19.918Z,92591.44
2022-12-31T05:28:48.408Z,92589.16
2022-12-31T05:31:16.927Z,92587.75
2022-12-31T05:33:45.395Z,92598.00
2022-12-31T05:36:14.760Z,92596.72
2022-12-31T05:38:43.407Z,92588.50
2022-12-31T05:41:13.734Z,92589.53
2022-12-31T05:43:42.208Z,92587.94
2022-12-31T05:46:11.096Z,92594.94
2022-12-31T05:48:39.590Z,92592.75
2022-12-31T05:51:08.138Z,92588.63
2022-12-31T05:53:36.646Z,92587.97
2022-12-31T05:56:05.543Z,92608.63
2022-12-31T05:58:35.393Z,92613.72
2022-12-31T06:01:03.901Z,92606.56
2022-12-31T06:03:32.496Z,92621.25
2022-12-31T06:06:02.937Z,92629.88
2022-12-31T06:08:31.430Z,92635.19
2022-12-31T06:11:00.150Z,92628.53
2022-12-31T06:13:28.643Z,92634.97
2022-12-31T06:15:58.554Z,92636.06
2022-12-31T06:18:27.261Z,92646.22
2022-12-31T06:20:55.718Z,92638.34
2022-12-31T06:23:24.175Z,92646.91
2022-12-31T06:25:52.669Z,92637.66
2022-12-31T06:28:21.171Z,92631.53
2022-12-31T06:30:50.192Z,92631.94
2022-12-31T06:33:20.310Z,92618.09
2022-12-31T06:35:48.790Z,92626.00
2022-12-31T06:38:17.246Z,92633.84
2022-12-31T06:40:45.715Z,92628.13
2022-12-31T06:43:14.439Z,92648.41
2022-12-31T06:45:43.163Z,92644.38
2022-12-31T06:48:11.817Z,92640.56
2022-12-31T06:50:41.728Z,92644.63
2022-12-31T06:53:10.411Z,92636.47
2022-12-31T06:55:39.645Z,92640.00
2022-12-31T06:58:13.577Z,92652.00
2022-12-31T07:00:49.509Z,92659.78
2022-12-31T07:03:31.756Z,92648.00
2022-12-31T07:06:10.531Z,92653.50
2022-12-31T07:08:49.425Z,92644.69
2022-12-31T07:11:23.648Z,92666.72
2022-12-31T07:14:09.874Z,92667.72
2022-12-31T07:16:51.599Z,92674.53
2022-12-31T07:19:33.849Z,92680.13
2022-12-31T07:22:04.981Z,92682.13
2022-12-31T07:24:34.242Z,92670.72
2022-12-31T07:27:16.843Z,92683.56
2022-12-31T07:30:03.472Z,92690.44
2022-12-31T07:33:05.641Z,92686.78
2022-12-31T07:35:46.604Z,92684.09
2022-12-31T07:38:26.034Z,92687.78
2022-12-31T07:41:09.725Z,92706.31
2022-12-31T07:43:53.312Z,92702.31
2022-12-31T07:46:40.050Z,92712.94
2022-12-31T07:49:13.068Z,92698.13
2022-12-31T07:51:45.405Z,92703.91
2022-12-31T07:54:15.268Z,92697.13
2022-12-31T07:56:44.523Z,92683.81
2022-12-31T07:59:28.815Z,92703.63
2022-12-31T08:02:06.217Z,92704.34
2022-12-31T08:04:44.044Z,92688.78
2022-12-31T08:07:21.963Z,92679.72
2022-12-31T08:10:01.164Z,92690.63
2022-12-31T08:12:36.165Z,92676.56
2022-12-31T08:15:14.069Z,92684.63
2022-12-31T08:17:43.091Z,92695.31
2022-12-31T08:20:15.848Z,92692.66
2022-12-31T08:23:12.827Z,92688.84
2022-12-31T08:26:08.361Z,92692.06
2022-12-31T08:28:56.557Z,92697.72
2022-12-31T08:31:31.845Z,92702.06
2022-12-31T08:34:14.179Z,92708.44
2022-12-31T08:36:53.504Z,92704.25
2022-12-31T08:39:39.524Z,92701.78
2022-12-31T08:42:20.894Z,92712.94
2022-12-31T08:44:57.652Z,92697.88
2022-12-31T08:47:38.558Z,92695.75
2022-12-31T08:50:13.879Z,92708.81
2022-12-31T08:52:43.119Z,92726.09
2022-12-31T08:55:17.392Z,92718.06
2022-12-31T08:58:02.849Z,92708.94
2022-12-31T09:00:33.035Z,92701.13
2022-12-31T09:03:34.689Z,92711.06
2022-12-31T09:06:11.271Z,92702.34
2022-12-31T09:08:50.396Z,92731.72
2022-12-31T09:11:24.741Z,92732.88
2022-12-31T09:14:18.934Z,92708.91
2022-12-31T09:16:57.711Z,92709.06
2022-12-31T09:19:26.236Z,92712.44
2022-12-31T09:21:55.846Z,92708.69
2022-12-31T09:24:25.154Z,92706.69
2022-12-31T09:27:04.766Z,92711.97
2022-12-31T09:29:52.810Z,92719.91
2022-12-31T09:32:33.391Z,92705.47
2022-12-31T09:35:14.049Z,92704.97
2022-12-31T09:37:49.876Z,92705.22
2022-12-31T09:40:55.388Z,92705.53
2022-12-31T09:44:29.223Z,92716.75
2022-12-31T09:47:50.532Z,92720.66
2022-12-31T09:50:53.043Z,92711.47
2022-12-31T09:53:43.555Z,92714.44
2022-12-31T09:56:19.445Z,92701.28
2022-12-31T09:59:00.179Z,92712.00
2022-12-31T10:01:41.684Z,92705.09
2022-12-31T10:04:43.831Z,92695.31
2022-12-31T10:07:35.535Z,92697.03
2022-12-31T10:10:14.591Z,92709.09
2022-12-31T10:13:18.274Z,92704.00
2022-12-31T10:16:16.073Z,92702.53
2022-12-31T10:19:28.507Z,92710.16
2022-12-31T10:22:15.964Z,92703.19
2022-12-31T10:24:56.440Z,92706.06
2022-12-31T10:27:49.459Z,92707.19
2022-12-31T10:30:20.998Z,92704.63
2022-12-31T10:33:04.596Z,92695.88
2022-12-31T10:35:44.545Z,92696.59
2022-12-31T10:38:32.058Z,92705.97
2022-12-31T10:41:49.649Z,92688.44
2022-12-31T10:45:14.144Z,92696.22
2022-12-31T10:48:39.375Z,92674.22
2022-12-31T10:52:04.168Z,92675.00
2022-12-31T10:55:35.995Z,92681.50
2022-12-31T10:58:36.839Z,92679.59
2022-12-31T11:01:12.726Z,92684.28
2022-12-31T11:04:34.368Z,92684.13
2022-12-31T11:07:43.979Z,92681.91
2022-12-31T11:11:06.404Z,92690.75
2022-12-31T11:14:10.813Z,92673.94
2022-12-31T11:16:58.767Z,92676.22
2022-12-31T11:19:38.527Z,92671.97
2022-12-31T11:22:39.217Z,92667.16
2022-12-31T11:25:24.501Z,92662.22
2022-12-31T11:28:12.342Z,92666.19
2022-12-31T11:30:56.980Z,92657.78
2022-12-31T11:33:50.544Z,92651.50
2022-12-31T11:36:34.589Z,92654.16
2022-12-31T11:39:36.565Z,92656.13
2022-12-31T11:42:17.621Z,92644.38
2022-12-31T11:44:57.035Z,92642.00
2022-12-31T11:50:56.860Z,92625.16
2022-12-31T11:53:43.591Z,92626.97
2022-12-31T11:56:19.247Z,92624.41
2022-12-31T11:58:51.141Z,92625.19
2022-12-31T12:01:24.532Z,92621.59
2022-12-31T12:03:53.143Z,92619.31
2022-12-31T12:06:29.326Z,92612.38
2022-12-31T12:09:02.216Z,92613.16
2022-12-31T12:11:37.023Z,92611.53
2022-12-31T12:14:21.663Z,92608.13
2022-12-31T12:17:00.830Z,92605.81
2022-12-31T12:19:35.897Z,92599.88
2022-12-31T12:22:13.817Z,92604.78
2022-12-31T12:24:53.663Z,92607.38
2022-12-31T12:27:28.856Z,92604.28
2022-12-31T12:29:57.728Z,92601.22
2022-12-31T12:32:28.606Z,92596.03
2022-12-31T12:34:57.092Z,92599.78
2022-12-31T12:37:32.412Z,92595.53
2022-12-31T12:40:03.711Z,92590.25
2022-12-31T12:42:33.995Z,92583.78
2022-12-31T12:45:06.246Z,92588.47
2022-12-31T12:47:35.819Z,92583.72
2022-12-31T12:50:06.076Z,92576.00
2022-12-31T12:52:59.754Z,92580.97
2022-12-31T12:55:40.257Z,92581.91
2022-12-31T12:58:22.808Z,92573.75
2022-12-31T13:01:02.361Z,92572.19
2022-12-31T13:07:24.699Z,92560.88
2022-12-31T13:10:14.762Z,92571.44
2022-12-31T13:13:22.884Z,92575.84
2022-12-31T13:15:48.803Z,92567.91
2022-12-31T13:18:41.202Z,92546.56
2022-12-31T13:21:28.257Z,92573.22
2022-12-31T13:24:02.396Z,92569.06
2022-12-31T13:26:38.422Z,92572.34
2022-12-31T13:29:15.771Z,92562.41
2022-12-31T13:31:47.032Z,92575.28
2022-12-31T13:34:19.857Z,92571.94
2022-12-31T13:36:50.823Z,92566.91
2022-12-31T13:39:26.525Z,92571.34
2022-12-31T13:42:02.543Z,92567.75
2022-12-31T13:44:37.333Z,92575.09
2022-12-31T13:47:13.967Z,92557.88
2022-12-31T13:49:49.231Z,92574.50
2022-12-31T13:52:29.072Z,92563.50
2022-12-31T13:55:06.049Z,92571.78
2022-12-31T13:57:43.687Z,92573.91
2022-12-31T14:00:23.265Z,92570.56
2022-12-31T14:03:03.977Z,92573.81
2022-12-31T14:05:37.729Z,92572.38
2022-12-31T14:08:07.938Z,92569.94
2022-12-31T14:10:49.661Z,92572.88
2022-12-31T14:13:37.843Z,92575.44
2022-12-31T14:16:17.895Z,92572.53
2022-12-31T14:18:58.401Z,92584.47
2022-12-31T14:21:35.847Z,92590.84
2022-12-31T14:24:14.980Z,92593.25
2022-12-31T14:26:47.946Z,92588.34
2022-12-31T14:29:33.187Z,92598.63
2022-12-31T14:32:33.335Z,92599.75
2022-12-31T14:35:27.837Z,92607.66
2022-12-31T14:38:07.000Z,92604.63
2022-12-31T14:40:51.166Z,92617.63
2022-12-31T14:43:31.913Z,92619.03
2022-12-31T14:46:13.113Z,92613.06
2022-12-31T14:48:56.940Z,92605.78
2022-12-31T14:51:30.747Z,92610.09
2022-12-31T14:54:00.172Z,92603.97
2022-12-31T14:56:39.155Z,92609.41
2022-12-31T14:59:27.353Z,92612.84
2022-12-31T15:01:56.815Z,92612.19
2022-12-31T15:04:43.875Z,92615.34
2022-12-31T15:07:23.624Z,92616.59
2022-12-31T15:10:14.076Z,92621.38
2022-12-31T15:13:03.552Z,92619.44
2022-12-31T15:16:10.986Z,92620.22
2022-12-31T15:19:04.604Z,92619.69
2022-12-31T15:21:57.761Z,92621.19
2022-12-31T15:24:30.761Z,92624.91
2022-12-31T15:27:02.237Z,92617.31
2022-12-31T15:29:35.151Z,92623.19
2022-12-31T15:32:06.498Z,92623.38
2022-12-31T15:34:37.929Z,92622.25
2022-12-31T15:37:31.111Z,92618.78
2022-12-31T15:40:19.864Z,92629.28
2022-12-31T15:42:52.490Z,92626.13
2022-12-31T15:45:27.811Z,92623.59
2022-12-31T15:47:59.564Z,92625.53
2022-12-31T15:50:29.155Z,92634.03
2022-12-31T15:52:59.178Z,92641.03
2022-12-31T15:55:34.896Z,92637.88
2022-12-31T15:58:07.887Z,92641.03
2022-12-31T16:00:56.854Z,92647.66
2022-12-31T16:03:28.285Z,92642.25
2022-12-31T16:06:02.517Z,92646.47
2022-12-31T16:08:33.475Z,92651.97
2022-12-31T16:11:05.660Z,92648.44
2022-12-31T16:13:39.083Z,92650.44
2022-12-31T16:16:21.855Z,92656.53
2022-12-31T16:18:51.354Z,92662.78
2022-12-31T16:21:33.829Z,92665.09
2022-12-31T16:24:04.719Z,92666.97
2022-12-31T16:26:45.422Z,92669.72
2022-12-31T16:29:16.836Z,92683.56
2022-12-31T16:31:47.289Z,92682.78
2022-12-31T16:34:19.041Z,92687.09
2022-12-31T16:36:58.428Z,92684.03
2022-12-31T16:39:32.809Z,92678.25
2022-12-31T16:42:20.401Z,92682.47
2022-12-31T16:44:49.881Z,92680.19
2022-12-31T16:47:23.073Z,92679.03
2022-12-31T16:50:01.718Z,92679.03
2022-12-31T16:52:36.329Z,92679.41
2022-12-31T16:55:10.132Z,92673.59
2022-12-31T16:57:40.817Z,92685.19
2022-12-31T17:00:16.993Z,92679.81
2022-12-31T17:02:50.724Z,92684.41
2022-12-31T17:05:21.605Z,92674.41
2022-12-31T17:07:50.179Z,92682.88
2022-12-31T17:10:23.271Z,92685.97
2022-12-31T17:15:47.441Z,92684.00
2022-12-31T17:18:20.841Z,92685.50
2022-12-31T17:20:50.428Z,92682.84
2022-12-31T17:23:27.647Z,92679.28
2022-12-31T17:26:01.690Z,92684.25
2022-12-31T17:28:41.119Z,92683.94
2022-12-31T17:31:33.575Z,92680.88
2022-12-31T17:34:24.514Z,92687.44
2022-12-31T17:37:17.663Z,92691.63
2022-12-31T17:39:53.020Z,92698.91
2022-12-31T17:42:33.502Z,92693.53
2022-12-31T17:45:07.802Z,92693.88
2022-12-31T17:47:38.939Z,92692.75
2022-12-31T17:50:19.436Z,92693.38
2022-12-31T17:52:48.900Z,92692.69
2022-12-31T17:55:17.950Z,92684.47
2022-12-31T17:57:53.328Z,92692.19
2022-12-31T18:00:27.413Z,92693.00
2022-12-31T18:02:56.111Z,92699.84
2022-12-31T18:05:26.295Z,92707.44
2022-12-31T18:07:55.918Z,92699.34
2022-12-31T18:10:26.561Z,92708.22
2022-12-31T18:12:55.183Z,92710.00
2022-12-31T18:15:26.415Z,92704.03
2022-12-31T18:17:54.984Z,92705.47
2022-12-31T18:20:23.783Z,92713.19
2022-12-31T18:22:52.421Z,92717.63
2022-12-31T18:25:24.400Z,92713.69
2022-12-31T18:27:53.788Z,92705.28
2022-12-31T18:30:23.821Z,92710.06
2022-12-31T18:32:53.760Z,92710.63
2022-12-31T18:38:15.779Z,92723.59
2022-12-31T18:40:46.818Z,92719.13
2022-12-31T18:43:18.328Z,92731.81
2022-12-31T18:45:47.912Z,92716.66
2022-12-31T18:48:18.155Z,92720.34
2022-12-31T18:50:47.274Z,92725.56
2022-12-31T18:53:21.111Z,92714.78
2022-12-31T18:55:52.184Z,92707.38
2022-12-31T18:58:21.161Z,92709.91
2022-12-31T19:00:51.543Z,92715.78
2022-12-31T19:03:24.301Z,92707.72
2022-12-31T19:05:53.796Z,92706.81
2022-12-31T19:08:24.216Z,92717.50
2022-12-31T19:10:54.150Z,92714.91
2022-12-31T19:13:23.364Z,92718.16
2022-12-31T19:15:55.629Z,92710.44
2022-12-31T19:18:25.790Z,92721.22
2022-12-31T19:20:54.506Z,92709.25
2022-12-31T19:23:23.503Z,92720.41
2022-12-31T19:25:52.146Z,92713.94
2022-12-31T19:28:22.674Z,92722.44
2022-12-31T19:30:51.208Z,92721.56
2022-12-31T19:33:20.105Z,92723.75
2022-12-31T19:35:50.953Z,92719.28
2022-12-31T19:38:23.451Z,92722.13
2022-12-31T19:40:53.495Z,92711.78
2022-12-31T19:43:24.515Z,92712.50
2022-12-31T19:45:54.106Z,92718.78
2022-12-31T19:48:32.287Z,92713.44
2022-12-31T19:51:02.831Z,92710.63
2022-12-31T19:53:31.498Z,92710.84
2022-12-31T19:55:59.945Z,92704.34
2022-12-31T19:58:28.946Z,92709.50
2022-12-31T20:01:02.827Z,92700.94
2022-12-31T20:03:32.897Z,92689.50
2022-12-31T20:06:08.808Z,92694.81
2022-12-31T20:08:39.683Z,92695.63
2022-12-31T20:11:13.049Z,92703.03
2022-12-31T20:13:42.531Z,92698.03
2022-12-31T20:16:13.896Z,92696.34
2022-12-31T20:18:43.617Z,92699.34
2022-12-31T20:21:17.760Z,92699.38
2022-12-31T20:23:47.051Z,92697.94
2022-12-31T20:26:15.572Z,92702.97
2022-12-31T20:28:44.139Z,92690.00
2022-12-31T20:31:15.090Z,92683.75
2022-12-31T20:33:44.109Z,92693.53
2022-12-31T20:36:17.131Z,92699.53
2022-12-31T20:38:46.505Z,92697.06
2022-12-31T20:41:18.054Z,92710.59
2022-12-31T20:43:47.366Z,92709.59
2022-12-31T20:46:19.631Z,92703.88
2022-12-31T20:48:50.988Z,92708.22
2022-12-31T20:51:22.182Z,92707.13
2022-12-31T20:53:53.172Z,92704.47
2022-12-31T20:56:24.349Z,92706.00
2022-12-31T20:58:53.241Z,92705.91
2022-12-31T21:01:22.542Z,92705.31
2022-12-31T21:04:04.871Z,92709.97
2022-12-31T21:06:36.945Z,92712.69
2022-12-31T21:09:08.264Z,92710.19
2022-12-31T21:11:55.003Z,92706.00
2022-12-31T21:14:23.517Z,92708.81
2022-12-31T21:16:52.346Z,92716.50
2022-12-31T21:19:20.903Z,92710.47
2022-12-31T21:21:50.713Z,92710.56
2022-12-31T21:24:23.832Z,92709.81
2022-12-31T21:26:53.370Z,92711.84
2022-12-31T21:29:21.848Z,92713.41
2022-12-31T21:31:50.834Z,92715.91
2022-12-31T21:34:19.323Z,92723.47
2022-12-31T21:36:47.788Z,92727.19
2022-12-31T21:39:17.916Z,92745.38
2022-12-31T21:41:52.859Z,92745.47
2022-12-31T21:44:22.896Z,92757.53
2022-12-31T21:47:33.349Z,92748.88
2022-12-31T21:49:43.910Z,92753.75
2022-12-31T21:52:27.567Z,92777.03
2022-12-31T21:55:16.965Z,92771.53
2022-12-31T21:58:24.285Z,92765.63
2022-12-31T22:00:53.219Z,92781.25
2022-12-31T22:03:28.645Z,92776.69
2022-12-31T22:06:00.990Z,92771.84
2022-12-31T22:08:31.957Z,92778.50
2022-12-31T22:11:02.095Z,92783.50
2022-12-31T22:13:30.618Z,92773.09
2022-12-31T22:16:05.342Z,92779.56
2022-12-31T22:18:38.805Z,92782.41
2022-12-31T22:21:17.825Z,92774.69
2022-12-31T22:23:49.120Z,92779.91
2022-12-31T22:26:22.414Z,92793.53
2022-12-31T22:28:52.550Z,92799.50
2022-12-31T22:31:24.529Z,92794.25
2022-12-31T22:33:53.977Z,92801.53
2022-12-31T22:36:24.663Z,92806.72
2022-12-31T22:38:58.643Z,92813.09
2022-12-31T22:41:29.541Z,92824.28
2022-12-31T22:44:04.189Z,92819.44
2022-12-31T22:46:34.467Z,92823.34
2022-12-31T22:49:05.217Z,92827.19
2022-12-31T22:51:55.849Z,92840.44
2022-12-31T22:54:23.119Z,92843.47
2022-12-31T22:56:53.053Z,92835.25
2022-12-31T22:59:21.793Z,92826.00
2022-12-31T23:01:50.303Z,92836.19
2022-12-31T23:04:18.879Z,92833.25
2022-12-31T23:06:47.680Z,92837.09
2022-12-31T23:09:35.930Z,92852.34
2022-12-31T23:12:07.719Z,92846.13
2022-12-31T23:14:54.864Z,92843.19
2022-12-31T23:17:43.183Z,92847.59
2022-12-31T23:20:33.723Z,92852.28
2022-12-31T23:23:11.602Z,92852.72
2022-12-31T23:25:43.473Z,92844.63
2022-12-31T23:28:16.503Z,92851.31
2022-12-31T23:30:45.579Z,92857.38
2022-12-31T23:33:17.520Z,92842.97
2022-12-31T23:35:46.237Z,92839.16
2022-12-31T23:38:16.769Z,92849.56
2022-12-31T23:40:45.670Z,92851.91
2022-12-31T23:43:21.906Z,92854.19
2022-12-31T23:45:51.827Z,92849.13
2022-12-31T23:48:20.366Z,92846.13
2022-12-31T23:50:53.809Z,92841.09
2022-12-31T23:53:23.387Z,92842.63
2022-12-31T23:55:52.219Z,92841.78
2022-12-31T23:58:22.732Z,92844.94
